sensor_id;sensor_type;location;lat;lon;timestamp;P1;durP1;ratioP1;P2;durP2;ratioP2
59006;SDS011;44792;52.760;6.726;2023-06-24T00:00:30;9.50;;;6.35;;
59006;SDS011;44792;52.760;6.726;2023-06-24T00:02:56;9.95;;;6.60;;
59006;SDS011;44792;52.760;6.726;2023-06-24T00:05:23;12.88;;;6.47;;
59006;SDS011;44792;52.760;6.726;2023-06-24T00:07:48;10.82;;;6.95;;
59006;SDS011;44792;52.760;6.726;2023-06-24T00:10:14;9.57;;;6.95;;
59006;SDS011;44792;52.760;6.726;2023-06-24T00:12:40;8.68;;;6.90;;
59006;SDS011;44792;52.760;6.726;2023-06-24T00:15:07;9.98;;;7.78;;
59006;SDS011;44792;52.760;6.726;2023-06-24T00:17:36;12.23;;;6.80;;
59006;SDS011;44792;52.760;6.726;2023-06-24T00:20:02;9.32;;;6.22;;
59006;SDS011;44792;52.760;6.726;2023-06-24T00:22:34;9.25;;;6.40;;
59006;SDS011;44792;52.760;6.726;2023-06-24T00:24:59;8.32;;;6.05;;
59006;SDS011;44792;52.760;6.726;2023-06-24T00:27:25;8.80;;;6.65;;
59006;SDS011;44792;52.760;6.726;2023-06-24T00:29:51;9.23;;;6.75;;
59006;SDS011;44792;52.760;6.726;2023-06-24T00:32:17;8.57;;;6.90;;
59006;SDS011;44792;52.760;6.726;2023-06-24T00:34:42;9.38;;;6.45;;
59006;SDS011;44792;52.760;6.726;2023-06-24T00:37:09;10.88;;;6.80;;
59006;SDS011;44792;52.760;6.726;2023-06-24T00:39:35;9.98;;;6.97;;
59006;SDS011;44792;52.760;6.726;2023-06-24T00:42:00;9.52;;;6.88;;
59006;SDS011;44792;52.760;6.726;2023-06-24T00:44:26;10.00;;;6.97;;
59006;SDS011;44792;52.760;6.726;2023-06-24T00:46:53;8.25;;;6.90;;
59006;SDS011;44792;52.760;6.726;2023-06-24T00:49:19;9.30;;;7.05;;
59006;SDS011;44792;52.760;6.726;2023-06-24T00:51:45;8.70;;;6.97;;
59006;SDS011;44792;52.760;6.726;2023-06-24T00:54:16;11.48;;;7.43;;
59006;SDS011;44792;52.760;6.726;2023-06-24T00:56:42;9.98;;;7.72;;
59006;SDS011;44792;52.760;6.726;2023-06-24T00:59:08;12.68;;;7.47;;
59006;SDS011;44792;52.760;6.726;2023-06-24T01:01:37;9.65;;;6.80;;
59006;SDS011;44792;52.760;6.726;2023-06-24T01:04:03;10.05;;;7.10;;
59006;SDS011;44792;52.760;6.726;2023-06-24T01:06:29;7.65;;;6.78;;
59006;SDS011;44792;52.760;6.726;2023-06-24T01:08:59;10.25;;;7.13;;
59006;SDS011;44792;52.760;6.726;2023-06-24T01:11:25;8.02;;;6.53;;
59006;SDS011;44792;52.760;6.726;2023-06-24T01:13:52;9.38;;;6.47;;
59006;SDS011;44792;52.760;6.726;2023-06-24T01:16:39;9.95;;;7.15;;
59006;SDS011;44792;52.760;6.726;2023-06-24T01:19:25;8.15;;;6.93;;
59006;SDS011;44792;52.760;6.726;2023-06-24T01:25:20;9.43;;;6.22;;
59006;SDS011;44792;52.760;6.726;2023-06-24T01:33:24;8.95;;;6.63;;
59006;SDS011;44792;52.760;6.726;2023-06-24T01:35:57;11.25;;;7.22;;
59006;SDS011;44792;52.760;6.726;2023-06-24T01:39:08;10.32;;;7.20;;
59006;SDS011;44792;52.760;6.726;2023-06-24T01:41:24;9.85;;;6.93;;
59006;SDS011;44792;52.760;6.726;2023-06-24T01:43:52;10.38;;;6.95;;
59006;SDS011;44792;52.760;6.726;2023-06-24T01:46:21;11.73;;;7.55;;
59006;SDS011;44792;52.760;6.726;2023-06-24T01:48:49;9.30;;;6.75;;
59006;SDS011;44792;52.760;6.726;2023-06-24T01:51:20;10.50;;;6.90;;
59006;SDS011;44792;52.760;6.726;2023-06-24T01:53:49;14.77;;;7.00;;
59006;SDS011;44792;52.760;6.726;2023-06-24T01:56:18;7.85;;;6.20;;
59006;SDS011;44792;52.760;6.726;2023-06-24T01:58:47;11.00;;;7.50;;
59006;SDS011;44792;52.760;6.726;2023-06-24T06:00:50;13.98;;;10.25;;
59006;SDS011;44792;52.760;6.726;2023-06-24T06:03:17;14.82;;;10.98;;
59006;SDS011;44792;52.760;6.726;2023-06-24T06:05:42;14.05;;;11.35;;
59006;SDS011;44792;52.760;6.726;2023-06-24T06:08:08;14.25;;;9.52;;
59006;SDS011;44792;52.760;6.726;2023-06-24T06:10:34;14.63;;;8.95;;
59006;SDS011;44792;52.760;6.726;2023-06-24T06:12:59;13.75;;;9.55;;
59006;SDS011;44792;52.760;6.726;2023-06-24T06:15:25;15.55;;;10.00;;
59006;SDS011;44792;52.760;6.726;2023-06-24T06:17:51;12.50;;;10.10;;
59006;SDS011;44792;52.760;6.726;2023-06-24T06:20:17;13.52;;;8.88;;
59006;SDS011;44792;52.760;6.726;2023-06-24T06:22:43;12.95;;;9.70;;
59006;SDS011;44792;52.760;6.726;2023-06-24T06:25:08;16.08;;;11.15;;
59006;SDS011;44792;52.760;6.726;2023-06-24T06:27:34;16.10;;;10.35;;
59006;SDS011;44792;52.760;6.726;2023-06-24T06:30:00;15.52;;;11.25;;
59006;SDS011;44792;52.760;6.726;2023-06-24T06:32:26;15.70;;;10.32;;
59006;SDS011;44792;52.760;6.726;2023-06-24T06:34:51;13.02;;;11.00;;
59006;SDS011;44792;52.760;6.726;2023-06-24T06:37:17;15.93;;;9.25;;
59006;SDS011;44792;52.760;6.726;2023-06-24T06:39:43;12.80;;;9.45;;
59006;SDS011;44792;52.760;6.726;2023-06-24T06:42:08;13.13;;;9.45;;
59006;SDS011;44792;52.760;6.726;2023-06-24T06:44:34;12.75;;;9.63;;
59006;SDS011;44792;52.760;6.726;2023-06-24T06:47:00;11.73;;;8.88;;
59006;SDS011;44792;52.760;6.726;2023-06-24T06:49:25;14.35;;;8.80;;
59006;SDS011;44792;52.760;6.726;2023-06-24T06:51:53;15.18;;;9.45;;
59006;SDS011;44792;52.760;6.726;2023-06-24T06:54:19;10.65;;;8.15;;
59006;SDS011;44792;52.760;6.726;2023-06-24T06:56:45;12.13;;;9.55;;
59006;SDS011;44792;52.760;6.726;2023-06-24T06:59:11;11.82;;;8.55;;
59006;SDS011;44792;52.760;6.726;2023-06-24T07:01:37;13.63;;;8.85;;
59006;SDS011;44792;52.760;6.726;2023-06-24T07:04:02;13.10;;;8.70;;
59006;SDS011;44792;52.760;6.726;2023-06-24T07:06:28;13.55;;;9.18;;
59006;SDS011;44792;52.760;6.726;2023-06-24T07:08:54;12.27;;;8.52;;
59006;SDS011;44792;52.760;6.726;2023-06-24T07:11:20;9.80;;;8.13;;
59006;SDS011;44792;52.760;6.726;2023-06-24T07:13:45;12.45;;;7.82;;
59006;SDS011;44792;52.760;6.726;2023-06-24T07:16:11;11.23;;;8.10;;
59006;SDS011;44792;52.760;6.726;2023-06-24T07:18:37;9.73;;;7.35;;
59006;SDS011;44792;52.760;6.726;2023-06-24T07:21:02;11.98;;;8.38;;
59006;SDS011;44792;52.760;6.726;2023-06-24T07:23:28;11.02;;;7.45;;
59006;SDS011;44792;52.760;6.726;2023-06-24T07:25:54;9.23;;;7.80;;
59006;SDS011;44792;52.760;6.726;2023-06-24T07:28:20;13.48;;;8.00;;
59006;SDS011;44792;52.760;6.726;2023-06-24T07:30:45;13.48;;;8.07;;
59006;SDS011;44792;52.760;6.726;2023-06-24T07:33:11;10.80;;;8.10;;
59006;SDS011;44792;52.760;6.726;2023-06-24T07:35:37;12.70;;;8.43;;
59006;SDS011;44792;52.760;6.726;2023-06-24T07:38:02;10.45;;;7.90;;
59006;SDS011;44792;52.760;6.726;2023-06-24T07:40:28;12.35;;;8.27;;
59006;SDS011;44792;52.760;6.726;2023-06-24T07:42:54;11.50;;;8.18;;
59006;SDS011;44792;52.760;6.726;2023-06-24T07:45:19;11.75;;;8.50;;
59006;SDS011;44792;52.760;6.726;2023-06-24T07:47:45;10.57;;;7.80;;
59006;SDS011;44792;52.760;6.726;2023-06-24T07:50:11;10.65;;;7.40;;
59006;SDS011;44792;52.760;6.726;2023-06-24T07:52:37;14.20;;;8.15;;
59006;SDS011;44792;52.760;6.726;2023-06-24T07:55:03;10.75;;;7.35;;
59006;SDS011;44792;52.760;6.726;2023-06-24T07:57:29;12.25;;;7.80;;
59006;SDS011;44792;52.760;6.726;2023-06-24T07:59:55;11.88;;;7.95;;
59006;SDS011;44792;52.760;6.726;2023-06-24T08:02:21;12.15;;;7.22;;
59006;SDS011;44792;52.760;6.726;2023-06-24T08:04:49;9.85;;;6.90;;
59006;SDS011;44792;52.760;6.726;2023-06-24T08:07:15;8.93;;;6.40;;
59006;SDS011;44792;52.760;6.726;2023-06-24T08:09:41;9.57;;;7.18;;
59006;SDS011;44792;52.760;6.726;2023-06-24T08:12:07;11.35;;;7.53;;
59006;SDS011;44792;52.760;6.726;2023-06-24T08:14:33;9.43;;;7.90;;
59006;SDS011;44792;52.760;6.726;2023-06-24T08:16:58;11.73;;;7.95;;
59006;SDS011;44792;52.760;6.726;2023-06-24T08:19:24;13.85;;;8.65;;
59006;SDS011;44792;52.760;6.726;2023-06-24T08:21:50;9.85;;;7.25;;
59006;SDS011;44792;52.760;6.726;2023-06-24T08:24:15;11.20;;;7.75;;
59006;SDS011;44792;52.760;6.726;2023-06-24T08:26:41;11.55;;;7.45;;
59006;SDS011;44792;52.760;6.726;2023-06-24T08:29:07;12.93;;;8.13;;
59006;SDS011;44792;52.760;6.726;2023-06-24T08:31:32;12.13;;;8.45;;
59006;SDS011;44792;52.760;6.726;2023-06-24T08:33:59;11.45;;;7.85;;
59006;SDS011;44792;52.760;6.726;2023-06-24T08:36:26;12.90;;;7.95;;
59006;SDS011;44792;52.760;6.726;2023-06-24T08:38:53;15.05;;;8.45;;
59006;SDS011;44792;52.760;6.726;2023-06-24T08:41:18;13.68;;;9.15;;
59006;SDS011;44792;52.760;6.726;2023-06-24T08:43:44;16.00;;;9.27;;
59006;SDS011;44792;52.760;6.726;2023-06-24T08:46:10;13.48;;;8.65;;
59006;SDS011;44792;52.760;6.726;2023-06-24T08:48:36;11.93;;;8.00;;
59006;SDS011;44792;52.760;6.726;2023-06-24T08:51:08;13.07;;;8.48;;
59006;SDS011;44792;52.760;6.726;2023-06-24T08:53:36;10.65;;;6.85;;
59006;SDS011;44792;52.760;6.726;2023-06-24T08:56:03;10.75;;;6.18;;
59006;SDS011;44792;52.760;6.726;2023-06-24T08:58:30;9.63;;;6.18;;
59006;SDS011;44792;52.760;6.726;2023-06-24T09:00:55;10.65;;;6.43;;
59006;SDS011;44792;52.760;6.726;2023-06-24T09:03:22;13.82;;;8.82;;
59006;SDS011;44792;52.760;6.726;2023-06-24T09:05:47;12.80;;;8.20;;
59006;SDS011;44792;52.760;6.726;2023-06-24T09:08:13;13.13;;;7.97;;
59006;SDS011;44792;52.760;6.726;2023-06-24T09:10:41;13.50;;;6.72;;
59006;SDS011;44792;52.760;6.726;2023-06-24T09:13:07;12.40;;;7.28;;
59006;SDS011;44792;52.760;6.726;2023-06-24T09:15:34;8.43;;;5.40;;
59006;SDS011;44792;52.760;6.726;2023-06-24T09:18:01;10.35;;;5.70;;
59006;SDS011;44792;52.760;6.726;2023-06-24T09:20:28;9.60;;;5.90;;
59006;SDS011;44792;52.760;6.726;2023-06-24T09:23:01;9.88;;;5.78;;
59006;SDS011;44792;52.760;6.726;2023-06-24T09:25:28;10.45;;;6.38;;
59006;SDS011;44792;52.760;6.726;2023-06-24T09:27:54;8.25;;;5.85;;
59006;SDS011;44792;52.760;6.726;2023-06-24T09:30:24;7.25;;;4.95;;
59006;SDS011;44792;52.760;6.726;2023-06-24T09:32:51;7.32;;;4.20;;
59006;SDS011;44792;52.760;6.726;2023-06-24T09:35:26;10.88;;;4.30;;
59006;SDS011;44792;52.760;6.726;2023-06-24T09:37:55;6.93;;;3.92;;
59006;SDS011;44792;52.760;6.726;2023-06-24T09:40:22;7.28;;;5.35;;
59006;SDS011;44792;52.760;6.726;2023-06-24T09:42:52;6.60;;;4.82;;
59006;SDS011;44792;52.760;6.726;2023-06-24T09:45:25;7.18;;;5.18;;
59006;SDS011;44792;52.760;6.726;2023-06-24T09:47:55;6.07;;;4.20;;
59006;SDS011;44792;52.760;6.726;2023-06-24T09:50:25;9.13;;;5.18;;
59006;SDS011;44792;52.760;6.726;2023-06-24T09:52:50;7.65;;;5.05;;
59006;SDS011;44792;52.760;6.726;2023-06-24T09:55:18;11.38;;;5.53;;
59006;SDS011;44792;52.760;6.726;2023-06-24T09:57:45;9.05;;;5.65;;
59006;SDS011;44792;52.760;6.726;2023-06-24T10:00:14;7.55;;;5.13;;
59006;SDS011;44792;52.760;6.726;2023-06-24T10:02:44;6.72;;;4.50;;
59006;SDS011;44792;52.760;6.726;2023-06-24T10:05:11;7.15;;;4.35;;
59006;SDS011;44792;52.760;6.726;2023-06-24T10:07:40;7.63;;;4.28;;
59006;SDS011;44792;52.760;6.726;2023-06-24T10:10:07;7.25;;;4.70;;
59006;SDS011;44792;52.760;6.726;2023-06-24T10:12:34;8.23;;;5.13;;
59006;SDS011;44792;52.760;6.726;2023-06-24T10:15:01;11.13;;;4.25;;
59006;SDS011;44792;52.760;6.726;2023-06-24T10:17:27;7.05;;;4.00;;
59006;SDS011;44792;52.760;6.726;2023-06-24T10:19:53;9.30;;;3.60;;
59006;SDS011;44792;52.760;6.726;2023-06-24T10:22:24;6.10;;;3.58;;
59006;SDS011;44792;52.760;6.726;2023-06-24T10:24:51;7.50;;;3.67;;
59006;SDS011;44792;52.760;6.726;2023-06-24T10:27:18;5.68;;;3.78;;
59006;SDS011;44792;52.760;6.726;2023-06-24T10:29:49;4.97;;;3.50;;
59006;SDS011;44792;52.760;6.726;2023-06-24T10:32:17;5.15;;;3.13;;
59006;SDS011;44792;52.760;6.726;2023-06-24T10:34:44;4.55;;;3.00;;
59006;SDS011;44792;52.760;6.726;2023-06-24T10:37:12;7.45;;;3.60;;
59006;SDS011;44792;52.760;6.726;2023-06-24T10:44:56;4.95;;;3.20;;
59006;SDS011;44792;52.760;6.726;2023-06-24T10:47:34;6.35;;;3.28;;
59006;SDS011;44792;52.760;6.726;2023-06-24T10:50:12;5.78;;;3.03;;
59006;SDS011;44792;52.760;6.726;2023-06-24T10:52:48;9.38;;;3.35;;
59006;SDS011;44792;52.760;6.726;2023-06-24T10:55:18;5.35;;;3.30;;
59006;SDS011;44792;52.760;6.726;2023-06-24T10:57:45;5.05;;;3.53;;
59006;SDS011;44792;52.760;6.726;2023-06-24T11:00:11;6.35;;;3.92;;
59006;SDS011;44792;52.760;6.726;2023-06-24T11:02:38;7.28;;;3.60;;
59006;SDS011;44792;52.760;6.726;2023-06-24T11:05:04;5.57;;;3.72;;
59006;SDS011;44792;52.760;6.726;2023-06-24T11:07:31;4.97;;;3.38;;
59006;SDS011;44792;52.760;6.726;2023-06-24T11:12:38;5.90;;;3.88;;
59006;SDS011;44792;52.760;6.726;2023-06-24T11:15:05;6.05;;;3.75;;
59006;SDS011;44792;52.760;6.726;2023-06-24T11:17:33;7.07;;;3.75;;
59006;SDS011;44792;52.760;6.726;2023-06-24T11:19:59;8.20;;;3.72;;
59006;SDS011;44792;52.760;6.726;2023-06-24T11:22:26;5.13;;;3.55;;
59006;SDS011;44792;52.760;6.726;2023-06-24T11:24:52;4.45;;;3.85;;
59006;SDS011;44792;52.760;6.726;2023-06-24T11:27:25;5.07;;;3.60;;
59006;SDS011;44792;52.760;6.726;2023-06-24T11:29:51;6.13;;;3.45;;
59006;SDS011;44792;52.760;6.726;2023-06-24T11:32:23;6.93;;;3.10;;
59006;SDS011;44792;52.760;6.726;2023-06-24T11:34:49;6.60;;;3.85;;
59006;SDS011;44792;52.760;6.726;2023-06-24T11:37:16;5.95;;;3.53;;
59006;SDS011;44792;52.760;6.726;2023-06-24T11:39:43;7.72;;;3.15;;
59006;SDS011;44792;52.760;6.726;2023-06-24T11:42:10;5.65;;;3.67;;
59006;SDS011;44792;52.760;6.726;2023-06-24T11:44:43;4.60;;;3.33;;
59006;SDS011;44792;52.760;6.726;2023-06-24T11:49:47;5.70;;;3.13;;
59006;SDS011;44792;52.760;6.726;2023-06-24T11:52:17;4.63;;;3.22;;
59006;SDS011;44792;52.760;6.726;2023-06-24T11:54:43;6.85;;;3.47;;
59006;SDS011;44792;52.760;6.726;2023-06-24T11:57:09;4.82;;;3.08;;
59006;SDS011;44792;52.760;6.726;2023-06-24T11:59:35;3.60;;;2.95;;
59006;SDS011;44792;52.760;6.726;2023-06-24T12:02:00;5.97;;;2.70;;
59006;SDS011;44792;52.760;6.726;2023-06-24T12:04:31;5.45;;;3.08;;
59006;SDS011;44792;52.760;6.726;2023-06-24T12:06:59;5.90;;;3.00;;
59006;SDS011;44792;52.760;6.726;2023-06-24T12:09:25;4.15;;;3.13;;
59006;SDS011;44792;52.760;6.726;2023-06-24T12:11:51;4.25;;;2.80;;
59006;SDS011;44792;52.760;6.726;2023-06-24T12:14:17;4.78;;;3.10;;
59006;SDS011;44792;52.760;6.726;2023-06-24T12:16:43;5.97;;;3.05;;
59006;SDS011;44792;52.760;6.726;2023-06-24T12:19:09;4.13;;;3.30;;
59006;SDS011;44792;52.760;6.726;2023-06-24T12:21:35;5.38;;;2.75;;
59006;SDS011;44792;52.760;6.726;2023-06-24T12:24:01;3.78;;;2.50;;
59006;SDS011;44792;52.760;6.726;2023-06-24T12:26:27;8.20;;;3.38;;
59006;SDS011;44792;52.760;6.726;2023-06-24T12:28:54;5.75;;;2.70;;
59006;SDS011;44792;52.760;6.726;2023-06-24T12:31:21;4.85;;;3.22;;
59006;SDS011;44792;52.760;6.726;2023-06-24T12:33:47;5.10;;;3.08;;
59006;SDS011;44792;52.760;6.726;2023-06-24T12:36:12;4.82;;;3.13;;
59006;SDS011;44792;52.760;6.726;2023-06-24T12:38:38;7.72;;;2.97;;
59006;SDS011;44792;52.760;6.726;2023-06-24T12:41:04;3.78;;;2.92;;
59006;SDS011;44792;52.760;6.726;2023-06-24T12:43:29;4.20;;;3.20;;
59006;SDS011;44792;52.760;6.726;2023-06-24T12:45:55;3.63;;;2.85;;
59006;SDS011;44792;52.760;6.726;2023-06-24T12:48:21;4.82;;;2.75;;
59006;SDS011;44792;52.760;6.726;2023-06-24T12:50:46;4.53;;;2.70;;
59006;SDS011;44792;52.760;6.726;2023-06-24T12:53:13;7.90;;;3.15;;
59006;SDS011;44792;52.760;6.726;2023-06-24T12:55:40;3.85;;;3.15;;
59006;SDS011;44792;52.760;6.726;2023-06-24T12:58:07;5.65;;;3.33;;
59006;SDS011;44792;52.760;6.726;2023-06-24T13:00:32;5.05;;;3.20;;
59006;SDS011;44792;52.760;6.726;2023-06-24T13:02:58;5.88;;;3.00;;
59006;SDS011;44792;52.760;6.726;2023-06-24T13:05:24;5.45;;;3.33;;
59006;SDS011;44792;52.760;6.726;2023-06-24T13:07:50;5.88;;;2.90;;
59006;SDS011;44792;52.760;6.726;2023-06-24T13:10:16;5.03;;;3.05;;
59006;SDS011;44792;52.760;6.726;2023-06-24T13:12:42;5.90;;;3.00;;
59006;SDS011;44792;52.760;6.726;2023-06-24T13:15:08;9.13;;;3.15;;
59006;SDS011;44792;52.760;6.726;2023-06-24T13:17:35;3.78;;;2.60;;
59006;SDS011;44792;52.760;6.726;2023-06-24T13:20:01;3.95;;;2.90;;
59006;SDS011;44792;52.760;6.726;2023-06-24T13:22:29;6.05;;;3.08;;
59006;SDS011;44792;52.760;6.726;2023-06-24T13:24:55;5.30;;;3.00;;
59006;SDS011;44792;52.760;6.726;2023-06-24T13:27:21;4.70;;;2.90;;
59006;SDS011;44792;52.760;6.726;2023-06-24T13:29:47;4.38;;;3.60;;
59006;SDS011;44792;52.760;6.726;2023-06-24T13:32:13;4.03;;;2.60;;
59006;SDS011;44792;52.760;6.726;2023-06-24T13:34:39;3.40;;;2.70;;
59006;SDS011;44792;52.760;6.726;2023-06-24T13:37:04;4.22;;;3.00;;
59006;SDS011;44792;52.760;6.726;2023-06-24T13:39:30;6.15;;;2.90;;
59006;SDS011;44792;52.760;6.726;2023-06-24T13:41:57;4.32;;;3.03;;
59006;SDS011;44792;52.760;6.726;2023-06-24T13:44:23;4.28;;;3.38;;
59006;SDS011;44792;52.760;6.726;2023-06-24T13:46:49;6.85;;;3.75;;
59006;SDS011;44792;52.760;6.726;2023-06-24T13:49:15;8.23;;;3.20;;
59006;SDS011;44792;52.760;6.726;2023-06-24T13:51:41;5.05;;;3.50;;
59006;SDS011;44792;52.760;6.726;2023-06-24T13:54:07;6.18;;;3.78;;
59006;SDS011;44792;52.760;6.726;2023-06-24T13:56:33;4.82;;;3.35;;
59006;SDS011;44792;52.760;6.726;2023-06-24T13:58:59;3.72;;;3.33;;
59006;SDS011;44792;52.760;6.726;2023-06-24T14:01:25;5.65;;;3.85;;
59006;SDS011;44792;52.760;6.726;2023-06-24T14:03:53;4.63;;;3.28;;
59006;SDS011;44792;52.760;6.726;2023-06-24T14:06:20;5.03;;;3.85;;
59006;SDS011;44792;52.760;6.726;2023-06-24T14:08:48;4.28;;;3.05;;
59006;SDS011;44792;52.760;6.726;2023-06-24T14:11:14;7.60;;;3.58;;
59006;SDS011;44792;52.760;6.726;2023-06-24T14:13:41;7.82;;;3.75;;
59006;SDS011;44792;52.760;6.726;2023-06-24T14:16:07;6.35;;;3.67;;
59006;SDS011;44792;52.760;6.726;2023-06-24T14:18:33;4.45;;;2.97;;
59006;SDS011;44792;52.760;6.726;2023-06-24T14:21:00;5.50;;;3.70;;
59006;SDS011;44792;52.760;6.726;2023-06-24T14:23:27;6.43;;;3.65;;
59006;SDS011;44792;52.760;6.726;2023-06-24T14:25:54;6.15;;;3.97;;
59006;SDS011;44792;52.760;6.726;2023-06-24T14:28:19;4.38;;;3.38;;
59006;SDS011;44792;52.760;6.726;2023-06-24T14:30:45;4.22;;;3.08;;
59006;SDS011;44792;52.760;6.726;2023-06-24T14:33:12;7.00;;;3.70;;
59006;SDS011;44792;52.760;6.726;2023-06-24T14:35:38;4.65;;;3.05;;
59006;SDS011;44792;52.760;6.726;2023-06-24T14:38:03;6.68;;;3.63;;
59006;SDS011;44792;52.760;6.726;2023-06-24T14:40:29;5.60;;;3.40;;
59006;SDS011;44792;52.760;6.726;2023-06-24T14:42:55;5.88;;;4.05;;
59006;SDS011;44792;52.760;6.726;2023-06-24T14:45:21;5.35;;;3.30;;
59006;SDS011;44792;52.760;6.726;2023-06-24T14:47:47;5.47;;;3.25;;
59006;SDS011;44792;52.760;6.726;2023-06-24T14:50:13;10.95;;;3.60;;
59006;SDS011;44792;52.760;6.726;2023-06-24T14:52:39;4.63;;;3.38;;
59006;SDS011;44792;52.760;6.726;2023-06-24T14:55:05;4.28;;;3.50;;
59006;SDS011;44792;52.760;6.726;2023-06-24T14:57:31;7.25;;;4.05;;
59006;SDS011;44792;52.760;6.726;2023-06-24T14:59:57;6.55;;;3.47;;
59006;SDS011;44792;52.760;6.726;2023-06-24T15:02:23;4.25;;;3.30;;
59006;SDS011;44792;52.760;6.726;2023-06-24T15:04:50;5.00;;;3.25;;
59006;SDS011;44792;52.760;6.726;2023-06-24T15:07:16;6.28;;;3.45;;
59006;SDS011;44792;52.760;6.726;2023-06-24T15:09:43;4.25;;;3.35;;
59006;SDS011;44792;52.760;6.726;2023-06-24T15:12:09;4.82;;;4.03;;
59006;SDS011;44792;52.760;6.726;2023-06-24T15:14:35;6.78;;;3.65;;
59006;SDS011;44792;52.760;6.726;2023-06-24T15:17:01;6.47;;;3.47;;
59006;SDS011;44792;52.760;6.726;2023-06-24T15:19:27;4.03;;;3.35;;
59006;SDS011;44792;52.760;6.726;2023-06-24T15:21:53;5.18;;;3.20;;
59006;SDS011;44792;52.760;6.726;2023-06-24T15:24:19;5.72;;;3.42;;
59006;SDS011;44792;52.760;6.726;2023-06-24T15:26:44;4.65;;;3.40;;
59006;SDS011;44792;52.760;6.726;2023-06-24T15:29:10;5.43;;;3.08;;
59006;SDS011;44792;52.760;6.726;2023-06-24T15:31:36;4.32;;;3.30;;
59006;SDS011;44792;52.760;6.726;2023-06-24T15:34:01;5.55;;;3.15;;
59006;SDS011;44792;52.760;6.726;2023-06-24T15:36:27;3.88;;;3.28;;
59006;SDS011;44792;52.760;6.726;2023-06-24T15:38:54;8.30;;;3.05;;
59006;SDS011;44792;52.760;6.726;2023-06-24T15:41:20;7.00;;;3.10;;
59006;SDS011;44792;52.760;6.726;2023-06-24T15:43:47;4.38;;;3.20;;
59006;SDS011;44792;52.760;6.726;2023-06-24T15:46:13;3.13;;;2.72;;
59006;SDS011;44792;52.760;6.726;2023-06-24T15:48:39;9.07;;;3.05;;
59006;SDS011;44792;52.760;6.726;2023-06-24T15:51:04;3.97;;;3.28;;
59006;SDS011;44792;52.760;6.726;2023-06-24T15:53:30;5.03;;;3.20;;
59006;SDS011;44792;52.760;6.726;2023-06-24T15:55:56;5.88;;;3.53;;
59006;SDS011;44792;52.760;6.726;2023-06-24T15:58:22;5.18;;;3.28;;
59006;SDS011;44792;52.760;6.726;2023-06-24T16:00:47;7.03;;;3.10;;
59006;SDS011;44792;52.760;6.726;2023-06-24T16:03:13;4.43;;;3.20;;
59006;SDS011;44792;52.760;6.726;2023-06-24T16:05:39;5.18;;;3.47;;
59006;SDS011;44792;52.760;6.726;2023-06-24T16:08:05;8.65;;;3.30;;
59006;SDS011;44792;52.760;6.726;2023-06-24T16:10:30;4.68;;;2.65;;
59006;SDS011;44792;52.760;6.726;2023-06-24T16:12:56;9.82;;;3.63;;
59006;SDS011;44792;52.760;6.726;2023-06-24T16:15:22;4.00;;;3.13;;
59006;SDS011;44792;52.760;6.726;2023-06-24T16:17:47;4.30;;;3.20;;
59006;SDS011;44792;52.760;6.726;2023-06-24T16:20:13;6.78;;;3.33;;
59006;SDS011;44792;52.760;6.726;2023-06-24T16:22:44;5.82;;;3.17;;
59006;SDS011;44792;52.760;6.726;2023-06-24T16:25:10;3.65;;;3.03;;
59006;SDS011;44792;52.760;6.726;2023-06-24T16:27:37;5.97;;;3.30;;
59006;SDS011;44792;52.760;6.726;2023-06-24T16:30:02;3.75;;;3.00;;
59006;SDS011;44792;52.760;6.726;2023-06-24T16:32:29;5.22;;;3.30;;
59006;SDS011;44792;52.760;6.726;2023-06-24T16:34:54;5.15;;;3.40;;
59006;SDS011;44792;52.760;6.726;2023-06-24T16:37:20;3.63;;;3.03;;
59006;SDS011;44792;52.760;6.726;2023-06-24T16:39:46;6.10;;;3.38;;
59006;SDS011;44792;52.760;6.726;2023-06-24T16:42:11;4.75;;;2.97;;
59006;SDS011;44792;52.760;6.726;2023-06-24T16:44:37;7.72;;;3.67;;
59006;SDS011;44792;52.760;6.726;2023-06-24T16:47:06;6.55;;;3.15;;
59006;SDS011;44792;52.760;6.726;2023-06-24T16:49:32;5.15;;;3.30;;
59006;SDS011;44792;52.760;6.726;2023-06-24T16:51:58;6.30;;;3.67;;
59006;SDS011;44792;52.760;6.726;2023-06-24T16:54:24;4.47;;;3.58;;
59006;SDS011;44792;52.760;6.726;2023-06-24T16:56:50;6.97;;;3.45;;
59006;SDS011;44792;52.760;6.726;2023-06-24T16:59:17;6.25;;;3.80;;
59006;SDS011;44792;52.760;6.726;2023-06-24T17:01:42;8.05;;;3.67;;
59006;SDS011;44792;52.760;6.726;2023-06-24T17:04:08;8.73;;;3.92;;
59006;SDS011;44792;52.760;6.726;2023-06-24T17:06:34;5.45;;;3.83;;
59006;SDS011;44792;52.760;6.726;2023-06-24T17:09:00;5.65;;;4.07;;
59006;SDS011;44792;52.760;6.726;2023-06-24T17:11:26;7.07;;;3.78;;
59006;SDS011;44792;52.760;6.726;2023-06-24T17:13:51;7.45;;;3.55;;
59006;SDS011;44792;52.760;6.726;2023-06-24T17:16:17;5.63;;;3.45;;
59006;SDS011;44792;52.760;6.726;2023-06-24T17:18:43;5.18;;;3.58;;
59006;SDS011;44792;52.760;6.726;2023-06-24T17:21:09;7.18;;;3.45;;
59006;SDS011;44792;52.760;6.726;2023-06-24T17:23:35;4.40;;;3.17;;
59006;SDS011;44792;52.760;6.726;2023-06-24T17:26:01;6.68;;;3.72;;
59006;SDS011;44792;52.760;6.726;2023-06-24T17:28:27;7.35;;;3.55;;
59006;SDS011;44792;52.760;6.726;2023-06-24T17:30:53;3.83;;;3.45;;
59006;SDS011;44792;52.760;6.726;2023-06-24T17:33:19;5.55;;;3.45;;
59006;SDS011;44792;52.760;6.726;2023-06-24T17:35:44;5.70;;;3.67;;
59006;SDS011;44792;52.760;6.726;2023-06-24T17:38:10;6.15;;;3.85;;
59006;SDS011;44792;52.760;6.726;2023-06-24T17:40:36;5.13;;;3.40;;
59006;SDS011;44792;52.760;6.726;2023-06-24T17:43:02;5.68;;;3.85;;
59006;SDS011;44792;52.760;6.726;2023-06-24T17:45:28;6.13;;;3.90;;
59006;SDS011;44792;52.760;6.726;2023-06-24T17:47:54;9.75;;;4.20;;
59006;SDS011;44792;52.760;6.726;2023-06-24T17:50:20;6.45;;;3.65;;
59006;SDS011;44792;52.760;6.726;2023-06-24T17:52:48;6.35;;;3.70;;
59006;SDS011;44792;52.760;6.726;2023-06-24T17:55:14;6.35;;;3.72;;
59006;SDS011;44792;52.760;6.726;2023-06-24T17:57:40;6.18;;;4.03;;
59006;SDS011;44792;52.760;6.726;2023-06-24T18:00:06;9.57;;;5.25;;
59006;SDS011;44792;52.760;6.726;2023-06-24T18:02:33;11.75;;;6.20;;
59006;SDS011;44792;52.760;6.726;2023-06-24T18:04:59;11.60;;;6.32;;
59006;SDS011;44792;52.760;6.726;2023-06-24T18:07:25;13.85;;;6.53;;
59006;SDS011;44792;52.760;6.726;2023-06-24T18:09:50;9.45;;;6.20;;
59006;SDS011;44792;52.760;6.726;2023-06-24T18:12:16;11.73;;;6.32;;
59006;SDS011;44792;52.760;6.726;2023-06-24T18:14:42;11.02;;;5.88;;
59006;SDS011;44792;52.760;6.726;2023-06-24T18:17:07;9.93;;;5.80;;
59006;SDS011;44792;52.760;6.726;2023-06-24T18:19:33;10.07;;;5.78;;
59006;SDS011;44792;52.760;6.726;2023-06-24T18:22:00;10.02;;;5.50;;
59006;SDS011;44792;52.760;6.726;2023-06-24T18:24:26;9.95;;;5.97;;
59006;SDS011;44792;52.760;6.726;2023-06-24T18:26:52;13.10;;;5.30;;
59006;SDS011;44792;52.760;6.726;2023-06-24T18:29:17;8.50;;;5.30;;
59006;SDS011;44792;52.760;6.726;2023-06-24T18:31:43;10.85;;;5.38;;
59006;SDS011;44792;52.760;6.726;2023-06-24T18:34:09;7.68;;;4.47;;
59006;SDS011;44792;52.760;6.726;2023-06-24T18:36:35;8.73;;;4.75;;
59006;SDS011;44792;52.760;6.726;2023-06-24T18:39:01;7.05;;;4.60;;
59006;SDS011;44792;52.760;6.726;2023-06-24T18:41:27;7.82;;;5.00;;
59006;SDS011;44792;52.760;6.726;2023-06-24T18:43:53;10.32;;;4.60;;
59006;SDS011;44792;52.760;6.726;2023-06-24T18:46:18;7.72;;;4.53;;
59006;SDS011;44792;52.760;6.726;2023-06-24T18:48:44;7.35;;;4.70;;
59006;SDS011;44792;52.760;6.726;2023-06-24T18:51:10;13.88;;;4.80;;
59006;SDS011;44792;52.760;6.726;2023-06-24T18:53:36;8.73;;;4.93;;
59006;SDS011;44792;52.760;6.726;2023-06-24T18:56:01;6.53;;;4.57;;
59006;SDS011;44792;52.760;6.726;2023-06-24T18:58:28;9.25;;;4.28;;